TAF Text Data
IDs:
Format:
Raw Decoded Include METAR

Data at: 2304 UTC 19 Apr 2021

METAR for:KMKT (Mankato Rgnl, MN, US)
Text:KMKT 192256Z AUTO 35016G21KT 10SM BKN055 03/M09 A3004 RMK AO2 PK WND 30026/2204 SLP185 T00331094
Temperature: 3.3°C ( 38°F)
Dewpoint: -9.4°C ( 15°F) [RH = 39%]
Pressure (altimeter):30.04 inches Hg (1017.4 mb) [Sea level pressure: 1018.5 mb]
Winds:from the N (350 degrees) at 18 MPH (16 knots; 8.2 m/s) gusting to 24 MPH (21 knots; 10.8 m/s)
Visibility:10 or more sm (16+ km)
Ceiling:5500 feet AGL
Clouds: broken clouds at 5500 feet AGL
QC Flag:automated observation with no human augmentation

TAF for:KMKT (Mankato Rgnl, MN, US) issued at 1720 UTC 19 Apr 2021
Text:KMKT 191720Z 1918/2018 33016G25KT P6SM OVC035
Forecast period:1800 UTC 19 April 2021 to 0100 UTC 20 April 2021
Forecast type:FROM: standard forecast or significant change
Winds:from the NNW (330 degrees) at 18 MPH (16 knots; 8.2 m/s) gusting to 29 MPH (25 knots; 12.9 m/s)
Visibility:6 or more sm (10+ km)
Ceiling:3500 feet AGL
Clouds: overcast cloud deck at 3500 feet AGL
Text:FM200100 32007KT P6SM SCT060
Forecast period:0100 to 1800 UTC 20 April 2021
Forecast type:FROM: standard forecast or significant change
Winds:from the NW (320 degrees) at 8 MPH (7 knots; 3.6 m/s)
Visibility:6 or more sm (10+ km)
Ceiling:at least 12,000 feet AGL
Clouds: scattered clouds at 6000 feet AGL